sensor_id;sensor_type;location;lat;lon;timestamp;P1;durP1;ratioP1;P2;durP2;ratioP2
23159;SDS011;11748;50.844;4.396;2023-04-01T00:00:51;8.95;;;3.28;;
23159;SDS011;11748;50.844;4.396;2023-04-01T00:03:18;8.43;;;2.22;;
23159;SDS011;11748;50.844;4.396;2023-04-01T00:05:45;8.57;;;2.50;;
23159;SDS011;11748;50.844;4.396;2023-04-01T00:08:11;12.70;;;2.88;;
23159;SDS011;11748;50.844;4.396;2023-04-01T00:10:37;6.50;;;2.60;;
23159;SDS011;11748;50.844;4.396;2023-04-01T00:13:03;8.25;;;2.70;;
23159;SDS011;11748;50.844;4.396;2023-04-01T00:15:29;9.68;;;3.10;;
23159;SDS011;11748;50.844;4.396;2023-04-01T00:17:55;9.48;;;2.92;;
23159;SDS011;11748;50.844;4.396;2023-04-01T00:20:21;5.55;;;2.33;;
23159;SDS011;11748;50.844;4.396;2023-04-01T00:22:47;12.05;;;2.90;;
23159;SDS011;11748;50.844;4.396;2023-04-01T00:25:14;11.07;;;2.95;;
23159;SDS011;11748;50.844;4.396;2023-04-01T00:27:40;8.05;;;2.72;;
23159;SDS011;11748;50.844;4.396;2023-04-01T00:30:06;9.80;;;2.60;;
23159;SDS011;11748;50.844;4.396;2023-04-01T00:32:33;8.68;;;2.30;;
23159;SDS011;11748;50.844;4.396;2023-04-01T00:34:59;9.32;;;2.75;;
23159;SDS011;11748;50.844;4.396;2023-04-01T00:37:26;10.05;;;2.47;;
23159;SDS011;11748;50.844;4.396;2023-04-01T00:39:52;4.57;;;1.98;;
23159;SDS011;11748;50.844;4.396;2023-04-01T00:42:18;7.78;;;2.45;;
23159;SDS011;11748;50.844;4.396;2023-04-01T00:44:45;4.88;;;1.92;;
23159;SDS011;11748;50.844;4.396;2023-04-01T00:47:15;6.43;;;2.00;;
23159;SDS011;11748;50.844;4.396;2023-04-01T00:49:42;5.82;;;2.22;;
23159;SDS011;11748;50.844;4.396;2023-04-01T00:52:11;10.18;;;2.58;;
23159;SDS011;11748;50.844;4.396;2023-04-01T00:54:39;7.53;;;1.80;;
23159;SDS011;11748;50.844;4.396;2023-04-01T00:57:28;7.35;;;2.03;;
23159;SDS011;11748;50.844;4.396;2023-04-01T01:00:00;5.65;;;2.00;;
23159;SDS011;11748;50.844;4.396;2023-04-01T01:02:26;6.60;;;2.38;;
23159;SDS011;11748;50.844;4.396;2023-04-01T01:04:52;5.80;;;1.80;;
23159;SDS011;11748;50.844;4.396;2023-04-01T01:10:15;6.35;;;2.30;;
23159;SDS011;11748;50.844;4.396;2023-04-01T01:13:00;7.25;;;2.22;;
23159;SDS011;11748;50.844;4.396;2023-04-01T01:15:34;6.03;;;2.17;;
23159;SDS011;11748;50.844;4.396;2023-04-01T01:27:20;2.85;;;1.27;;
23159;SDS011;11748;50.844;4.396;2023-04-01T01:38:10;3.25;;;1.67;;
23159;SDS011;11748;50.844;4.396;2023-04-01T01:40:43;4.25;;;2.00;;
23159;SDS011;11748;50.844;4.396;2023-04-01T01:43:14;4.32;;;1.67;;
23159;SDS011;11748;50.844;4.396;2023-04-01T01:45:44;5.90;;;1.90;;
23159;SDS011;11748;50.844;4.396;2023-04-01T01:48:13;2.58;;;2.00;;
23159;SDS011;11748;50.844;4.396;2023-04-01T01:50:41;6.90;;;2.30;;
23159;SDS011;11748;50.844;4.396;2023-04-01T01:53:10;5.82;;;2.83;;
23159;SDS011;11748;50.844;4.396;2023-04-01T01:55:38;7.93;;;3.20;;
23159;SDS011;11748;50.844;4.396;2023-04-01T01:58:07;4.55;;;3.10;;
23159;SDS011;11748;50.844;4.396;2023-04-01T02:00:42;5.72;;;3.58;;
23159;SDS011;11748;50.844;4.396;2023-04-01T02:03:12;7.00;;;4.00;;
23159;SDS011;11748;50.844;4.396;2023-04-01T02:05:38;12.07;;;4.80;;
23159;SDS011;11748;50.844;4.396;2023-04-01T02:08:12;6.97;;;3.97;;
23159;SDS011;11748;50.844;4.396;2023-04-01T02:10:42;8.75;;;3.95;;
23159;SDS011;11748;50.844;4.396;2023-04-01T02:13:18;10.02;;;4.55;;
23159;SDS011;11748;50.844;4.396;2023-04-01T02:15:50;8.32;;;4.43;;
23159;SDS011;11748;50.844;4.396;2023-04-01T02:18:21;10.05;;;4.97;;
23159;SDS011;11748;50.844;4.396;2023-04-01T02:20:47;8.85;;;4.95;;
23159;SDS011;11748;50.844;4.396;2023-04-01T02:23:15;10.90;;;5.00;;
23159;SDS011;11748;50.844;4.396;2023-04-01T02:25:41;10.45;;;4.22;;
23159;SDS011;11748;50.844;4.396;2023-04-01T02:28:08;9.50;;;4.68;;
23159;SDS011;11748;50.844;4.396;2023-04-01T02:30:36;13.88;;;3.78;;
23159;SDS011;11748;50.844;4.396;2023-04-01T02:33:05;9.10;;;4.22;;
23159;SDS011;11748;50.844;4.396;2023-04-01T02:35:32;7.03;;;3.70;;
23159;SDS011;11748;50.844;4.396;2023-04-01T02:38:00;12.52;;;4.30;;
23159;SDS011;11748;50.844;4.396;2023-04-01T02:40:27;8.55;;;3.72;;
23159;SDS011;11748;50.844;4.396;2023-04-01T02:42:52;7.68;;;4.60;;
23159;SDS011;11748;50.844;4.396;2023-04-01T02:45:18;9.25;;;3.75;;
23159;SDS011;11748;50.844;4.396;2023-04-01T02:47:44;7.90;;;3.70;;
23159;SDS011;11748;50.844;4.396;2023-04-01T02:50:09;8.90;;;3.67;;
23159;SDS011;11748;50.844;4.396;2023-04-01T02:52:35;11.35;;;3.58;;
23159;SDS011;11748;50.844;4.396;2023-04-01T02:55:02;9.50;;;3.72;;
23159;SDS011;11748;50.844;4.396;2023-04-01T02:57:28;11.73;;;3.65;;
23159;SDS011;11748;50.844;4.396;2023-04-01T02:59:54;11.90;;;4.40;;
23159;SDS011;11748;50.844;4.396;2023-04-01T03:02:20;8.18;;;3.85;;
23159;SDS011;11748;50.844;4.396;2023-04-01T03:04:46;9.70;;;3.67;;
23159;SDS011;11748;50.844;4.396;2023-04-01T03:07:11;7.05;;;3.40;;
23159;SDS011;11748;50.844;4.396;2023-04-01T03:09:37;8.57;;;3.78;;
23159;SDS011;11748;50.844;4.396;2023-04-01T03:12:03;10.80;;;4.57;;
23159;SDS011;11748;50.844;4.396;2023-04-01T03:14:29;10.68;;;3.47;;
23159;SDS011;11748;50.844;4.396;2023-04-01T03:16:55;8.27;;;3.55;;
23159;SDS011;11748;50.844;4.396;2023-04-01T03:19:21;9.18;;;4.00;;
23159;SDS011;11748;50.844;4.396;2023-04-01T03:21:46;10.75;;;4.88;;
23159;SDS011;11748;50.844;4.396;2023-04-01T03:24:12;8.63;;;4.07;;
23159;SDS011;11748;50.844;4.396;2023-04-01T03:26:38;8.60;;;4.88;;
23159;SDS011;11748;50.844;4.396;2023-04-01T03:29:03;10.27;;;5.13;;
23159;SDS011;11748;50.844;4.396;2023-04-01T03:31:29;8.48;;;4.85;;
23159;SDS011;11748;50.844;4.396;2023-04-01T03:33:55;11.93;;;5.63;;
23159;SDS011;11748;50.844;4.396;2023-04-01T03:36:21;9.50;;;5.50;;
23159;SDS011;11748;50.844;4.396;2023-04-01T03:38:46;10.07;;;5.47;;
23159;SDS011;11748;50.844;4.396;2023-04-01T03:41:13;13.88;;;6.07;;
23159;SDS011;11748;50.844;4.396;2023-04-01T03:43:40;14.27;;;6.55;;
23159;SDS011;11748;50.844;4.396;2023-04-01T03:46:06;12.75;;;6.60;;
23159;SDS011;11748;50.844;4.396;2023-04-01T03:48:32;15.35;;;6.57;;
23159;SDS011;11748;50.844;4.396;2023-04-01T03:50:57;13.23;;;6.65;;
23159;SDS011;11748;50.844;4.396;2023-04-01T03:53:23;16.67;;;7.55;;
23159;SDS011;11748;50.844;4.396;2023-04-01T03:55:49;16.33;;;6.63;;
23159;SDS011;11748;50.844;4.396;2023-04-01T03:58:16;14.02;;;7.03;;
23159;SDS011;11748;50.844;4.396;2023-04-01T04:00:42;13.82;;;6.72;;
23159;SDS011;11748;50.844;4.396;2023-04-01T04:03:08;14.93;;;6.25;;
23159;SDS011;11748;50.844;4.396;2023-04-01T04:05:34;12.52;;;6.55;;
23159;SDS011;11748;50.844;4.396;2023-04-01T04:08:00;13.10;;;6.68;;
23159;SDS011;11748;50.844;4.396;2023-04-01T04:10:26;14.77;;;6.05;;
23159;SDS011;11748;50.844;4.396;2023-04-01T04:12:52;16.15;;;6.57;;
23159;SDS011;11748;50.844;4.396;2023-04-01T04:15:17;11.80;;;6.05;;
23159;SDS011;11748;50.844;4.396;2023-04-01T04:17:45;13.27;;;5.97;;
23159;SDS011;11748;50.844;4.396;2023-04-01T04:20:11;13.43;;;5.72;;
23159;SDS011;11748;50.844;4.396;2023-04-01T04:22:36;10.07;;;5.03;;
23159;SDS011;11748;50.844;4.396;2023-04-01T04:25:02;8.15;;;5.07;;
23159;SDS011;11748;50.844;4.396;2023-04-01T04:27:28;10.05;;;4.93;;
23159;SDS011;11748;50.844;4.396;2023-04-01T04:29:54;10.27;;;4.78;;
23159;SDS011;11748;50.844;4.396;2023-04-01T04:32:19;10.48;;;4.40;;
23159;SDS011;11748;50.844;4.396;2023-04-01T04:34:45;9.57;;;5.05;;
23159;SDS011;11748;50.844;4.396;2023-04-01T04:37:11;10.88;;;4.70;;
23159;SDS011;11748;50.844;4.396;2023-04-01T04:39:37;9.07;;;4.65;;
23159;SDS011;11748;50.844;4.396;2023-04-01T04:42:02;7.15;;;3.92;;
23159;SDS011;11748;50.844;4.396;2023-04-01T04:44:28;6.45;;;4.10;;
23159;SDS011;11748;50.844;4.396;2023-04-01T04:46:54;10.70;;;3.85;;
23159;SDS011;11748;50.844;4.396;2023-04-01T04:49:20;6.95;;;4.25;;
23159;SDS011;11748;50.844;4.396;2023-04-01T04:51:46;6.07;;;3.58;;
23159;SDS011;11748;50.844;4.396;2023-04-01T04:54:11;4.68;;;3.20;;
23159;SDS011;11748;50.844;4.396;2023-04-01T04:56:37;6.47;;;3.85;;
23159;SDS011;11748;50.844;4.396;2023-04-01T04:59:03;5.80;;;3.65;;
23159;SDS011;11748;50.844;4.396;2023-04-01T05:01:29;4.68;;;3.40;;
23159;SDS011;11748;50.844;4.396;2023-04-01T05:03:54;5.40;;;3.58;;
23159;SDS011;11748;50.844;4.396;2023-04-01T05:06:20;5.30;;;3.40;;
23159;SDS011;11748;50.844;4.396;2023-04-01T05:08:46;5.00;;;3.60;;
23159;SDS011;11748;50.844;4.396;2023-04-01T05:11:13;6.50;;;3.92;;
23159;SDS011;11748;50.844;4.396;2023-04-01T05:13:44;8.27;;;3.97;;
23159;SDS011;11748;50.844;4.396;2023-04-01T05:16:11;6.80;;;4.00;;
23159;SDS011;11748;50.844;4.396;2023-04-01T05:18:41;7.72;;;4.05;;
23159;SDS011;11748;50.844;4.396;2023-04-01T05:21:08;5.03;;;3.95;;
23159;SDS011;11748;50.844;4.396;2023-04-01T05:23:35;4.65;;;3.80;;
23159;SDS011;11748;50.844;4.396;2023-04-01T05:26:05;7.35;;;3.88;;
23159;SDS011;11748;50.844;4.396;2023-04-01T05:28:32;8.63;;;4.28;;
23159;SDS011;11748;50.844;4.396;2023-04-01T05:30:58;8.05;;;4.35;;
23159;SDS011;11748;50.844;4.396;2023-04-01T05:33:25;11.07;;;5.15;;
23159;SDS011;11748;50.844;4.396;2023-04-01T05:35:51;10.60;;;4.97;;
23159;SDS011;11748;50.844;4.396;2023-04-01T05:38:17;8.70;;;5.10;;
23159;SDS011;11748;50.844;4.396;2023-04-01T05:40:43;9.30;;;5.10;;
23159;SDS011;11748;50.844;4.396;2023-04-01T05:43:09;11.30;;;5.43;;
23159;SDS011;11748;50.844;4.396;2023-04-01T05:45:35;10.00;;;5.45;;
23159;SDS011;11748;50.844;4.396;2023-04-01T05:48:01;10.88;;;5.70;;
23159;SDS011;11748;50.844;4.396;2023-04-01T05:50:27;12.15;;;6.60;;
23159;SDS011;11748;50.844;4.396;2023-04-01T05:52:54;10.38;;;6.80;;
23159;SDS011;11748;50.844;4.396;2023-04-01T05:55:20;11.60;;;7.10;;
23159;SDS011;11748;50.844;4.396;2023-04-01T05:57:46;10.00;;;6.68;;
23159;SDS011;11748;50.844;4.396;2023-04-01T06:00:13;14.00;;;7.13;;
23159;SDS011;11748;50.844;4.396;2023-04-01T06:02:40;13.00;;;6.70;;
23159;SDS011;11748;50.844;4.396;2023-04-01T06:07:47;13.52;;;6.90;;
23159;SDS011;11748;50.844;4.396;2023-04-01T06:10:17;11.30;;;7.35;;
23159;SDS011;11748;50.844;4.396;2023-04-01T06:12:45;12.50;;;8.15;;
23159;SDS011;11748;50.844;4.396;2023-04-01T06:23:44;14.48;;;8.38;;
23159;SDS011;11748;50.844;4.396;2023-04-01T06:34:28;11.75;;;7.20;;
23159;SDS011;11748;50.844;4.396;2023-04-01T06:42:59;11.18;;;6.90;;
23159;SDS011;11748;50.844;4.396;2023-04-01T06:45:54;11.23;;;6.90;;
23159;SDS011;11748;50.844;4.396;2023-04-01T06:52:02;12.45;;;7.40;;
23159;SDS011;11748;50.844;4.396;2023-04-01T06:54:15;10.70;;;7.30;;
23159;SDS011;11748;50.844;4.396;2023-04-01T06:56:46;10.57;;;7.15;;
23159;SDS011;11748;50.844;4.396;2023-04-01T06:59:36;9.85;;;6.82;;
23159;SDS011;11748;50.844;4.396;2023-04-01T07:02:11;10.23;;;6.50;;
23159;SDS011;11748;50.844;4.396;2023-04-01T07:04:56;9.40;;;6.30;;
23159;SDS011;11748;50.844;4.396;2023-04-01T07:07:43;10.82;;;5.78;;
23159;SDS011;11748;50.844;4.396;2023-04-01T07:10:23;9.55;;;5.70;;
23159;SDS011;11748;50.844;4.396;2023-04-01T07:13:13;8.18;;;5.30;;
23159;SDS011;11748;50.844;4.396;2023-04-01T07:16:30;7.38;;;4.47;;
23159;SDS011;11748;50.844;4.396;2023-04-01T07:18:45;7.90;;;5.30;;
23159;SDS011;11748;50.844;4.396;2023-04-01T07:21:28;9.13;;;5.60;;
23159;SDS011;11748;50.844;4.396;2023-04-01T07:24:02;8.98;;;4.60;;
23159;SDS011;11748;50.844;4.396;2023-04-01T07:26:31;7.10;;;4.78;;
23159;SDS011;11748;50.844;4.396;2023-04-01T07:28:57;6.20;;;4.45;;
23159;SDS011;11748;50.844;4.396;2023-04-01T07:37:18;5.90;;;3.53;;
23159;SDS011;11748;50.844;4.396;2023-04-01T07:40:08;4.80;;;3.53;;
23159;SDS011;11748;50.844;4.396;2023-04-01T07:54:46;4.20;;;2.85;;
23159;SDS011;11748;50.844;4.396;2023-04-01T08:00:24;4.70;;;3.00;;
23159;SDS011;11748;50.844;4.396;2023-04-01T08:22:27;2.60;;;1.98;;
23159;SDS011;11748;50.844;4.396;2023-04-01T08:24:59;2.47;;;1.42;;
23159;SDS011;11748;50.844;4.396;2023-04-01T08:27:35;2.33;;;1.48;;
23159;SDS011;11748;50.844;4.396;2023-04-01T08:30:24;4.22;;;1.73;;
23159;SDS011;11748;50.844;4.396;2023-04-01T08:54:46;4.50;;;1.75;;
23159;SDS011;11748;50.844;4.396;2023-04-01T08:57:53;1.67;;;1.27;;
23159;SDS011;11748;50.844;4.396;2023-04-01T09:00:31;2.60;;;1.13;;
23159;SDS011;11748;50.844;4.396;2023-04-01T09:38:00;2.75;;;2.17;;
23159;SDS011;11748;50.844;4.396;2023-04-01T09:40:36;3.13;;;2.30;;
23159;SDS011;11748;50.844;4.396;2023-04-01T09:57:19;3.78;;;1.83;;
23159;SDS011;11748;50.844;4.396;2023-04-01T10:00:20;2.53;;;2.25;;
23159;SDS011;11748;50.844;4.396;2023-04-01T10:03:13;3.95;;;1.88;;
23159;SDS011;11748;50.844;4.396;2023-04-01T10:17:14;3.92;;;1.98;;
23159;SDS011;11748;50.844;4.396;2023-04-01T10:22:50;1.75;;;1.50;;
23159;SDS011;11748;50.844;4.396;2023-04-01T10:29:06;4.57;;;1.90;;
23159;SDS011;11748;50.844;4.396;2023-04-01T10:34:41;2.75;;;1.70;;
23159;SDS011;11748;50.844;4.396;2023-04-01T10:48:41;3.47;;;1.70;;
23159;SDS011;11748;50.844;4.396;2023-04-01T11:03:03;1.38;;;1.20;;
23159;SDS011;11748;50.844;4.396;2023-04-01T11:27:51;3.00;;;2.58;;
23159;SDS011;11748;50.844;4.396;2023-04-01T11:33:35;3.58;;;1.88;;
23159;SDS011;11748;50.844;4.396;2023-04-01T11:41:56;2.00;;;1.80;;
23159;SDS011;11748;50.844;4.396;2023-04-01T11:44:39;3.80;;;1.73;;
23159;SDS011;11748;50.844;4.396;2023-04-01T11:47:58;3.97;;;1.90;;
23159;SDS011;11748;50.844;4.396;2023-04-01T11:55:24;2.53;;;1.70;;
23159;SDS011;11748;50.844;4.396;2023-04-01T12:01:04;2.63;;;1.40;;
23159;SDS011;11748;50.844;4.396;2023-04-01T12:04:05;2.47;;;1.27;;
23159;SDS011;11748;50.844;4.396;2023-04-01T12:29:08;3.22;;;1.70;;
23159;SDS011;11748;50.844;4.396;2023-04-01T12:37:58;1.80;;;1.67;;
23159;SDS011;11748;50.844;4.396;2023-04-01T12:48:50;3.72;;;2.38;;
23159;SDS011;11748;50.844;4.396;2023-04-01T13:16:16;3.13;;;2.22;;
23159;SDS011;11748;50.844;4.396;2023-04-01T13:29:43;2.50;;;1.45;;
23159;SDS011;11748;50.844;4.396;2023-04-01T13:35:20;1.98;;;1.40;;
23159;SDS011;11748;50.844;4.396;2023-04-01T13:40:26;1.40;;;1.23;;
23159;SDS011;11748;50.844;4.396;2023-04-01T13:59:16;2.22;;;1.42;;
23159;SDS011;11748;50.844;4.396;2023-04-01T14:15:37;1.85;;;1.00;;
23159;SDS011;11748;50.844;4.396;2023-04-01T14:23:39;1.10;;;1.00;;
23159;SDS011;11748;50.844;4.396;2023-04-01T14:40:28;1.65;;;1.25;;
23159;SDS011;11748;50.844;4.396;2023-04-01T14:45:46;2.10;;;0.88;;
23159;SDS011;11748;50.844;4.396;2023-04-01T14:48:37;1.58;;;1.10;;
23159;SDS011;11748;50.844;4.396;2023-04-01T14:51:16;1.30;;;1.00;;
23159;SDS011;11748;50.844;4.396;2023-04-01T14:56:36;2.05;;;1.00;;
23159;SDS011;11748;50.844;4.396;2023-04-01T14:59:14;1.60;;;1.00;;
23159;SDS011;11748;50.844;4.396;2023-04-01T15:01:56;2.83;;;1.08;;
23159;SDS011;11748;50.844;4.396;2023-04-01T15:17:45;1.57;;;1.00;;
23159;SDS011;11748;50.844;4.396;2023-04-01T15:20:36;2.38;;;1.08;;
23159;SDS011;11748;50.844;4.396;2023-04-01T15:28:23;1.65;;;1.00;;
23159;SDS011;11748;50.844;4.396;2023-04-01T15:31:14;2.35;;;1.00;;
23159;SDS011;11748;50.844;4.396;2023-04-01T15:41:17;2.03;;;1.20;;
23159;SDS011;11748;50.844;4.396;2023-04-01T15:43:54;2.15;;;0.90;;
23159;SDS011;11748;50.844;4.396;2023-04-01T15:51:48;2.20;;;1.02;;
23159;SDS011;11748;50.844;4.396;2023-04-01T15:54:37;2.75;;;1.05;;
23159;SDS011;11748;50.844;4.396;2023-04-01T16:00:20;3.30;;;1.10;;
23159;SDS011;11748;50.844;4.396;2023-04-01T16:11:48;1.95;;;1.05;;
23159;SDS011;11748;50.844;4.396;2023-04-01T16:24:55;3.53;;;1.40;;
23159;SDS011;11748;50.844;4.396;2023-04-01T16:27:36;2.25;;;1.40;;
23159;SDS011;11748;50.844;4.396;2023-04-01T16:33:11;1.75;;;1.20;;
23159;SDS011;11748;50.844;4.396;2023-04-01T16:35:55;2.05;;;1.10;;
23159;SDS011;11748;50.844;4.396;2023-04-01T16:38:36;1.35;;;1.13;;
23159;SDS011;11748;50.844;4.396;2023-04-01T16:41:35;1.98;;;1.10;;
23159;SDS011;11748;50.844;4.396;2023-04-01T16:44:27;2.70;;;1.58;;
23159;SDS011;11748;50.844;4.396;2023-04-01T16:46:58;3.50;;;1.20;;
23159;SDS011;11748;50.844;4.396;2023-04-01T17:02:58;2.00;;;1.30;;
23159;SDS011;11748;50.844;4.396;2023-04-01T17:05:49;3.03;;;1.45;;
23159;SDS011;11748;50.844;4.396;2023-04-01T17:11:00;2.08;;;1.50;;
23159;SDS011;11748;50.844;4.396;2023-04-01T17:19:27;2.63;;;1.88;;
23159;SDS011;11748;50.844;4.396;2023-04-01T17:27:05;2.70;;;1.90;;
23159;SDS011;11748;50.844;4.396;2023-04-01T17:30:05;2.00;;;1.80;;
23159;SDS011;11748;50.844;4.396;2023-04-01T17:32:58;2.53;;;2.00;;
23159;SDS011;11748;50.844;4.396;2023-04-01T17:41:05;3.67;;;1.95;;
23159;SDS011;11748;50.844;4.396;2023-04-01T17:46:53;3.60;;;1.98;;
23159;SDS011;11748;50.844;4.396;2023-04-01T17:50:08;3.13;;;2.08;;
23159;SDS011;11748;50.844;4.396;2023-04-01T17:52:22;3.90;;;2.80;;
23159;SDS011;11748;50.844;4.396;2023-04-01T17:55:46;3.28;;;2.40;;
23159;SDS011;11748;50.844;4.396;2023-04-01T17:58:03;3.53;;;2.63;;
23159;SDS011;11748;50.844;4.396;2023-04-01T18:12:04;3.90;;;2.80;;
23159;SDS011;11748;50.844;4.396;2023-04-01T18:20:07;4.63;;;3.20;;
23159;SDS011;11748;50.844;4.396;2023-04-01T18:22:57;3.85;;;3.55;;
23159;SDS011;11748;50.844;4.396;2023-04-01T18:25:46;4.32;;;3.22;;
23159;SDS011;11748;50.844;4.396;2023-04-01T18:39:16;5.20;;;4.32;;
23159;SDS011;11748;50.844;4.396;2023-04-01T18:47:36;5.50;;;4.82;;
23159;SDS011;11748;50.844;4.396;2023-04-01T18:52:44;6.78;;;5.47;;
23159;SDS011;11748;50.844;4.396;2023-04-01T19:01:00;9.18;;;5.57;;
23159;SDS011;11748;50.844;4.396;2023-04-01T19:03:58;7.88;;;6.30;;
23159;SDS011;11748;50.844;4.396;2023-04-01T19:06:43;8.38;;;5.90;;
23159;SDS011;11748;50.844;4.396;2023-04-01T19:09:18;7.60;;;6.72;;
23159;SDS011;11748;50.844;4.396;2023-04-01T19:14:25;10.98;;;7.80;;
23159;SDS011;11748;50.844;4.396;2023-04-01T19:19:45;12.40;;;8.75;;
23159;SDS011;11748;50.844;4.396;2023-04-01T19:25:02;12.10;;;9.32;;
23159;SDS011;11748;50.844;4.396;2023-04-01T19:27:44;15.93;;;11.20;;
23159;SDS011;11748;50.844;4.396;2023-04-01T19:35:53;18.35;;;11.77;;
23159;SDS011;11748;50.844;4.396;2023-04-01T19:38:39;16.48;;;11.85;;
23159;SDS011;11748;50.844;4.396;2023-04-01T19:46:49;15.07;;;11.90;;
23159;SDS011;11748;50.844;4.396;2023-04-01T19:49:23;17.42;;;12.02;;
23159;SDS011;11748;50.844;4.396;2023-04-01T19:59:41;15.93;;;11.82;;
23159;SDS011;11748;50.844;4.396;2023-04-01T20:04:55;15.18;;;11.88;;
23159;SDS011;11748;50.844;4.396;2023-04-01T20:07:24;15.63;;;12.32;;
23159;SDS011;11748;50.844;4.396;2023-04-01T20:12:37;17.08;;;12.60;;
23159;SDS011;11748;50.844;4.396;2023-04-01T20:15:22;18.02;;;12.65;;
23159;SDS011;11748;50.844;4.396;2023-04-01T20:18:02;19.95;;;12.13;;
23159;SDS011;11748;50.844;4.396;2023-04-01T20:20:51;14.80;;;12.15;;
23159;SDS011;11748;50.844;4.396;2023-04-01T20:23:43;16.60;;;11.20;;
23159;SDS011;11748;50.844;4.396;2023-04-01T20:26:25;16.35;;;11.98;;
23159;SDS011;11748;50.844;4.396;2023-04-01T20:35:19;17.05;;;12.35;;
23159;SDS011;11748;50.844;4.396;2023-04-01T20:40:49;22.67;;;13.65;;
23159;SDS011;11748;50.844;4.396;2023-04-01T20:51:05;19.48;;;12.18;;
23159;SDS011;11748;50.844;4.396;2023-04-01T20:53:42;20.70;;;13.13;;
23159;SDS011;11748;50.844;4.396;2023-04-01T21:04:18;20.80;;;12.93;;
23159;SDS011;11748;50.844;4.396;2023-04-01T21:14:59;23.55;;;14.57;;
23159;SDS011;11748;50.844;4.396;2023-04-01T21:20:40;31.75;;;15.85;;
23159;SDS011;11748;50.844;4.396;2023-04-01T22:01:59;20.58;;;14.18;;
23159;SDS011;11748;50.844;4.396;2023-04-01T22:04:44;17.40;;;13.20;;
23159;SDS011;11748;50.844;4.396;2023-04-01T22:07:15;20.23;;;14.30;;
23159;SDS011;11748;50.844;4.396;2023-04-01T22:10:20;19.10;;;13.95;;
23159;SDS011;11748;50.844;4.396;2023-04-01T22:24:29;21.13;;;14.13;;
23159;SDS011;11748;50.844;4.396;2023-04-01T22:32:46;20.80;;;14.20;;
23159;SDS011;11748;50.844;4.396;2023-04-01T22:37:45;17.75;;;14.70;;
23159;SDS011;11748;50.844;4.396;2023-04-01T22:40:42;20.77;;;16.08;;
23159;SDS011;11748;50.844;4.396;2023-04-01T22:51:38;23.23;;;16.83;;
23159;SDS011;11748;50.844;4.396;2023-04-01T22:54:22;22.10;;;16.92;;
23159;SDS011;11748;50.844;4.396;2023-04-01T22:57:00;22.35;;;17.40;;
23159;SDS011;11748;50.844;4.396;2023-04-01T23:04:55;23.52;;;18.20;;
23159;SDS011;11748;50.844;4.396;2023-04-01T23:07:36;24.58;;;18.27;;
23159;SDS011;11748;50.844;4.396;2023-04-01T23:12:56;20.80;;;16.30;;
23159;SDS011;11748;50.844;4.396;2023-04-01T23:15:26;21.00;;;16.42;;
23159;SDS011;11748;50.844;4.396;2023-04-01T23:17:56;20.58;;;16.23;;
23159;SDS011;11748;50.844;4.396;2023-04-01T23:20:30;19.10;;;15.65;;
23159;SDS011;11748;50.844;4.396;2023-04-01T23:28:54;22.02;;;16.95;;
23159;SDS011;11748;50.844;4.396;2023-04-01T23:36:39;21.48;;;16.65;;
23159;SDS011;11748;50.844;4.396;2023-04-01T23:39:24;22.25;;;16.13;;
23159;SDS011;11748;50.844;4.396;2023-04-01T23:42:05;21.15;;;16.23;;
23159;SDS011;11748;50.844;4.396;2023-04-01T23:44:37;22.35;;;16.75;;
23159;SDS011;11748;50.844;4.396;2023-04-01T23:47:04;23.70;;;17.00;;
23159;SDS011;11748;50.844;4.396;2023-04-01T23:49:38;23.67;;;17.33;;
23159;SDS011;11748;50.844;4.396;2023-04-01T23:55:03;24.37;;;18.37;;
23159;SDS011;11748;50.844;4.396;2023-04-01T23:57:35;25.38;;;18.98;;
